Avon, IN (46123)

2:11 PM EDT on July 04, 2015 (GMT -0400)
WestBay | | Change Station
CLOSE
Current Station
Personal Weather Station
Location: Plainfield, IN
Elevation: 778 ft
Nearby Weather Stations

Elev 778 ft 39.70 °N, 86.43 °W | Updated 10 minutes ago

Clear
Clear
80.1 °F
Feels Like 87 °F
N
2.7
Wind Variable Wind from West

Today
High -- | Low -- °F
--% Chance of Precip.
Yesterday
High -- | Low -- °F
Precip. -- in
6:23 AM 9:17 PM
Waning Gibbous, 91% visible
Pressure 30.00 in
Visibility 10.0 miles
Clouds Scattered Clouds 4000 ft
Scattered Clouds 22000 ft
Heat Index 87 °F
Dew Point 80 °F
Humidity 98%
Rainfall 0.00 in
Snow Depth Not available.
UV 10 out of 12
Pollen 3.40 out of 12
Air Quality Not available.
Flu Activity Not available.
METAR KIND 041754Z 31003KT 10SM SCT040 SCT220 26/14 A3001 RMK AO2 SLP157 T02560139 10261 20183 50002

More Conditions Fewer Conditions

Pressure 30.00 in
Visibility 10.0 miles
Clouds Scattered Clouds 4000 ft
Scattered Clouds 22000 ft
Heat Index 87 °F
Dew Point 80 °F
Humidity 98%
Rainfall 0.00 in
Snow Depth Not available.
UV 10 out of 12
Pollen 3.40 out of 12
Air Quality Not available.
Flu Activity Not available.
METAR KIND 041754Z 31003KT 10SM SCT040 SCT220 26/14 A3001 RMK AO2 SLP157 T02560139 10261 20183 50002

More Conditions Fewer Conditions

10-Day Weather Forecast

×

Almanac

Astronomy

Jul. 04, 2015 Rise Set
Actual Time
Civil Twilight
Nautical Twilight
Astronomical Twilight
Moon
Length of Visible Light
Length of Day
Tomorrow will be .
, % of the Moon is Illuminated

Today's Extremes

State Highs State Lows

Community

WunderPhotos

Upload Photos

1,835,030 photos uploaded!

WunderBlogs® & News

Nearby

Air Quality

  Air Quality AQ Index Pollutant
Not available.

Snow Depth

Station Depth Elevation

Earthquake Activity

City Distance Mag. Time & Date
Minimum magnitude displayed is 2.5.

Coastal Water Temperatures

Place Temperature

Stations

Nearby Weather Stations

Station Location Temp. Windchill Dew Point Humidity Wind Precip. Elev Updated Type